Ventnor City, New Jersey
Current Conditions -  °F | °C
As of 2:54 AM on Saturday 22 Nov 2014 (Local Time) from KACY Reporting Station
Clear Clear  
Wind Chill: 23°   Ceiling: Unl
Heat Index: 23°   Visibility: 10mi
Dew Point: 12°   Wind: 0mph
Humidity: 63%   Direction: NA
Pressure: 30.53"   Gusts: NA
Location:  39.34°N, 74.48°W
Report Text: KACY 220754Z 00000KT 10SM CLR M05/M11 A3053 RMK AO2 SLP340 T10501111
Loading
Personal Weather Stations






























Interactive Weather Map New forecast layout! Learn more

10-Day Weather Forecast

Advertisements
Track Severe Weather on mobile